createdAt,value
2022-07-26T00:02:18.026Z,20.01
2022-07-26T00:07:07.882Z,19.97
2022-07-26T00:11:57.456Z,19.93
2022-07-26T00:16:47.355Z,19.90
2022-07-26T00:21:40.902Z,19.90
2022-07-26T00:26:30.844Z,19.83
2022-07-26T00:31:20.622Z,19.82
2022-07-26T00:36:10.920Z,19.86
2022-07-26T00:41:03.052Z,19.90
2022-07-26T00:45:52.684Z,19.99
2022-07-26T00:50:42.225Z,20.00
2022-07-26T00:55:31.851Z,20.02
2022-07-26T01:00:27.885Z,20.05
2022-07-26T01:05:17.503Z,20.10
2022-07-26T01:10:07.714Z,20.12
2022-07-26T01:14:57.369Z,20.07
2022-07-26T01:19:49.421Z,20.06
2022-07-26T01:24:41.777Z,20.04
2022-07-26T01:29:35.423Z,19.99
2022-07-26T01:34:26.067Z,19.94
2022-07-26T01:39:15.864Z,19.89
2022-07-26T01:44:09.129Z,19.83
2022-07-26T01:48:59.235Z,19.81
2022-07-26T01:53:48.783Z,19.75
2022-07-26T01:58:38.368Z,19.70
2022-07-26T02:03:30.654Z,19.65
2022-07-26T02:08:20.739Z,19.60
2022-07-26T02:13:12.334Z,19.60
2022-07-26T02:18:01.909Z,19.61
2022-07-26T02:22:53.926Z,19.59
2022-07-26T02:27:43.430Z,19.54
2022-07-26T02:32:32.898Z,19.52
2022-07-26T02:37:22.413Z,19.50
2022-07-26T02:42:14.884Z,19.47
2022-07-26T02:47:04.410Z,19.44
2022-07-26T02:51:54.042Z,19.44
2022-07-26T02:56:43.624Z,19.40
2022-07-26T03:01:36.103Z,19.37
2022-07-26T03:06:25.634Z,19.34
2022-07-26T03:11:15.117Z,19.32
2022-07-26T03:16:04.736Z,19.31
2022-07-26T03:20:56.911Z,19.26
2022-07-26T03:25:46.449Z,19.17
2022-07-26T03:30:36.205Z,19.12
2022-07-26T03:35:26.027Z,19.09
2022-07-26T03:40:19.257Z,19.00
2022-07-26T03:45:09.455Z,18.92
2022-07-26T03:49:58.909Z,18.89
2022-07-26T03:54:48.420Z,18.85
2022-07-26T03:59:40.422Z,18.80
2022-07-26T04:04:30.746Z,18.78
2022-07-26T04:09:20.432Z,18.75
2022-07-26T04:14:10.710Z,18.77
2022-07-26T04:19:03.209Z,18.71
2022-07-26T04:23:52.818Z,18.73
2022-07-26T04:28:42.628Z,18.73
2022-07-26T04:33:33.139Z,18.69
2022-07-26T04:38:25.275Z,18.69
2022-07-26T04:43:15.648Z,18.69
2022-07-26T04:48:07.308Z,18.68
2022-07-26T04:52:58.353Z,18.68
2022-07-26T04:57:50.800Z,18.69
2022-07-26T05:02:49.879Z,18.70
2022-07-26T05:07:43.723Z,18.69
2022-07-26T05:12:33.207Z,18.67
2022-07-26T05:17:25.429Z,18.67
2022-07-26T05:22:16.246Z,18.68
2022-07-26T05:27:06.643Z,18.69
2022-07-26T05:31:57.674Z,18.72
2022-07-26T05:36:50.941Z,18.78
2022-07-26T05:41:43.679Z,18.77
2022-07-26T05:46:33.496Z,18.80
2022-07-26T05:51:22.931Z,18.75
2022-07-26T05:56:14.974Z,18.80
2022-07-26T06:01:04.477Z,18.87
2022-07-26T06:05:56.809Z,18.86
2022-07-26T06:10:46.708Z,18.84
2022-07-26T06:15:38.950Z,18.86
2022-07-26T06:20:28.568Z,18.87
2022-07-26T06:25:17.920Z,18.88
2022-07-26T06:30:07.847Z,18.87
2022-07-26T06:35:03.811Z,18.81
2022-07-26T06:39:53.464Z,18.70
2022-07-26T06:44:42.912Z,18.58
2022-07-26T06:49:32.529Z,18.48
2022-07-26T06:54:25.197Z,18.42
2022-07-26T06:59:14.747Z,18.29
2022-07-26T07:04:04.202Z,18.22
2022-07-26T07:08:53.571Z,18.19
2022-07-26T07:13:46.477Z,18.20
2022-07-26T07:18:35.933Z,18.29
2022-07-26T07:23:25.357Z,18.29
2022-07-26T07:28:14.972Z,18.20
2022-07-26T07:33:09.439Z,18.19
2022-07-26T07:38:12.540Z,18.12
2022-07-26T07:43:02.083Z,18.14
2022-07-26T07:47:51.507Z,18.19
2022-07-26T07:52:43.794Z,18.29
2022-07-26T07:57:35.659Z,18.39
2022-07-26T08:02:25.088Z,18.52
2022-07-26T08:07:14.557Z,18.63
2022-07-26T08:12:07.352Z,18.73
2022-07-26T08:16:56.838Z,18.83
2022-07-26T08:21:46.804Z,18.89
2022-07-26T08:26:36.507Z,19.01
2022-07-26T08:31:28.752Z,19.07
2022-07-26T08:36:18.400Z,18.89
2022-07-26T08:41:07.985Z,18.65
2022-07-26T08:46:02.630Z,18.33
2022-07-26T08:50:54.784Z,18.16
2022-07-26T08:56:05.787Z,18.12
2022-07-26T09:01:05.616Z,18.18
2022-07-26T09:06:00.714Z,18.27
2022-07-26T09:10:50.109Z,18.34
2022-07-26T09:15:39.538Z,18.35
2022-07-26T09:20:30.071Z,18.42
2022-07-26T09:25:26.248Z,18.43
2022-07-26T09:30:16.179Z,18.48
2022-07-26T09:35:45.411Z,18.41
2022-07-26T09:40:25.278Z,18.42
2022-07-26T09:45:18.791Z,18.47
2022-07-26T09:50:12.588Z,18.61
2022-07-26T09:55:06.872Z,18.75
2022-07-26T09:59:59.566Z,18.85
2022-07-26T10:04:49.003Z,18.85
2022-07-26T10:09:43.456Z,18.80
2022-07-26T10:14:45.802Z,18.78
2022-07-26T10:19:45.777Z,18.75
2022-07-26T10:24:41.307Z,18.74
2022-07-26T10:29:31.195Z,18.76
2022-07-26T10:34:32.953Z,18.76
2022-07-26T10:39:27.485Z,18.75
2022-07-26T10:44:21.980Z,18.80
2022-07-26T10:49:12.466Z,18.79
2022-07-26T10:54:02.821Z,18.75
2022-07-26T10:58:55.180Z,18.77
2022-07-26T11:03:46.038Z,18.85
2022-07-26T11:08:35.469Z,18.89
2022-07-26T11:13:25.674Z,19.00
2022-07-26T11:18:22.265Z,19.13
2022-07-26T11:23:26.933Z,19.27
2022-07-26T11:28:16.368Z,19.50
2022-07-26T11:33:05.800Z,19.59
2022-07-26T11:38:11.252Z,19.70
2022-07-26T11:43:01.775Z,19.88
2022-07-26T11:47:51.365Z,20.00
2022-07-26T11:52:40.761Z,20.14
2022-07-26T11:57:33.871Z,20.22
2022-07-26T12:02:24.562Z,20.20
2022-07-26T12:07:15.020Z,20.23
2022-07-26T12:12:05.039Z,20.19
2022-07-26T12:16:57.406Z,20.13
2022-07-26T12:21:49.485Z,20.12
2022-07-26T12:26:39.447Z,20.17
2022-07-26T12:31:29.628Z,20.11
2022-07-26T12:36:27.491Z,20.15
2022-07-26T12:41:32.902Z,20.15
2022-07-26T12:46:22.547Z,20.23
2022-07-26T12:51:12.049Z,20.33
2022-07-26T12:56:04.338Z,20.65
2022-07-26T13:00:54.463Z,21.03
2022-07-26T13:05:43.833Z,21.24
2022-07-26T13:10:35.002Z,21.25
2022-07-26T13:15:35.226Z,21.22
2022-07-26T13:20:27.281Z,21.30
2022-07-26T13:25:16.751Z,21.39
2022-07-26T13:30:06.585Z,21.32
2022-07-26T13:34:58.622Z,21.19
2022-07-26T13:39:47.985Z,21.09
2022-07-26T13:44:37.388Z,20.99
2022-07-26T13:49:26.823Z,20.96
2022-07-26T13:54:19.706Z,20.86
2022-07-26T13:59:09.693Z,21.06
2022-07-26T14:03:59.390Z,21.30
2022-07-26T14:08:48.801Z,21.32
2022-07-26T14:13:43.020Z,21.29
2022-07-26T14:18:32.601Z,21.38
2022-07-26T14:23:21.980Z,21.30
2022-07-26T14:28:11.614Z,21.12
2022-07-26T14:33:05.104Z,21.07
2022-07-26T14:37:54.488Z,20.95
2022-07-26T14:42:43.979Z,20.66
2022-07-26T14:47:33.407Z,20.60
2022-07-26T14:52:25.502Z,20.59
2022-07-26T14:57:14.949Z,20.49
2022-07-26T15:02:06.827Z,20.44
2022-07-26T15:06:56.211Z,20.39
2022-07-26T15:11:49.490Z,20.40
2022-07-26T15:16:38.985Z,20.55
2022-07-26T15:21:28.378Z,20.80
2022-07-26T15:26:17.804Z,20.84
2022-07-26T15:31:10.110Z,20.64
2022-07-26T15:36:00.482Z,20.49
2022-07-26T15:40:53.968Z,20.47
2022-07-26T15:45:44.287Z,20.51
2022-07-26T15:50:37.362Z,20.68
2022-07-26T15:55:26.851Z,20.68
2022-07-26T16:00:18.773Z,20.52
2022-07-26T16:05:09.004Z,20.32
2022-07-26T16:10:01.811Z,20.30
2022-07-26T16:14:51.282Z,20.29
2022-07-26T16:19:42.852Z,20.18
2022-07-26T16:24:34.100Z,20.11
2022-07-26T16:29:26.685Z,20.11
2022-07-26T16:34:16.189Z,20.10
2022-07-26T16:39:06.684Z,20.06
2022-07-26T16:43:57.838Z,20.09
2022-07-26T16:48:52.308Z,20.05
2022-07-26T16:53:41.893Z,19.96
2022-07-26T16:58:33.708Z,19.90
2022-07-26T17:03:24.117Z,19.97
2022-07-26T17:08:16.333Z,20.04
2022-07-26T17:13:05.802Z,20.05
2022-07-26T17:17:56.317Z,19.99
2022-07-26T17:22:46.871Z,19.83
2022-07-26T17:27:38.949Z,19.71
2022-07-26T17:32:28.526Z,19.58
2022-07-26T17:37:18.564Z,19.55
2022-07-26T17:42:14.760Z,19.43
2022-07-26T17:47:28.458Z,19.33
2022-07-26T17:52:18.241Z,19.29
2022-07-26T17:57:08.457Z,19.17
2022-07-26T18:01:58.035Z,19.08
2022-07-26T18:06:50.245Z,19.01
2022-07-26T18:11:41.523Z,18.95
2022-07-26T18:16:31.100Z,18.86
2022-07-26T18:21:22.013Z,18.78
2022-07-26T18:26:14.646Z,18.74
2022-07-26T18:31:04.624Z,18.73
2022-07-26T18:35:54.286Z,18.69
2022-07-26T18:40:46.576Z,18.63
2022-07-26T18:45:39.145Z,18.53
2022-07-26T18:50:31.068Z,18.48
2022-07-26T18:55:22.209Z,18.40
2022-07-26T19:00:14.648Z,18.31
2022-07-26T19:05:07.175Z,18.19
2022-07-26T19:09:58.809Z,18.10
2022-07-26T19:14:50.955Z,18.06
2022-07-26T19:19:43.486Z,17.99
2022-07-26T19:24:36.242Z,17.95
2022-07-26T19:29:25.783Z,17.86
2022-07-26T19:34:15.883Z,17.75
2022-07-26T19:39:05.329Z,17.73
2022-07-26T19:43:57.280Z,17.63
2022-07-26T19:48:48.342Z,17.58
2022-07-26T19:53:39.921Z,17.51
2022-07-26T19:58:33.891Z,17.68
2022-07-26T20:03:26.221Z,17.68
2022-07-26T20:08:16.286Z,17.65
2022-07-26T20:13:05.951Z,17.63
2022-07-26T20:17:55.714Z,17.64
2022-07-26T20:22:50.214Z,17.62
2022-07-26T20:27:40.083Z,17.54
2022-07-26T20:32:29.717Z,17.46
2022-07-26T20:37:19.374Z,17.59
2022-07-26T20:42:14.872Z,17.50
2022-07-26T20:47:11.791Z,17.58
2022-07-26T20:52:04.392Z,17.54
2022-07-26T20:56:54.076Z,17.50
2022-07-26T21:01:46.563Z,17.41
2022-07-26T21:06:36.416Z,17.31
2022-07-26T21:11:26.091Z,17.24
2022-07-26T21:16:15.931Z,17.21
2022-07-26T21:21:08.674Z,17.21
2022-07-26T21:26:00.569Z,17.16
2022-07-26T21:30:50.661Z,17.13
2022-07-26T21:35:41.167Z,17.04
2022-07-26T21:40:33.735Z,16.94
2022-07-26T21:45:23.439Z,16.87
2022-07-26T21:50:13.373Z,16.90
2022-07-26T21:55:03.082Z,16.91
2022-07-26T21:59:55.405Z,16.85
2022-07-26T22:04:46.190Z,16.81
2022-07-26T22:09:35.808Z,16.79
2022-07-26T22:14:25.447Z,16.78
2022-07-26T22:19:17.899Z,16.78
2022-07-26T22:24:08.326Z,16.69
2022-07-26T22:28:58.017Z,16.70
2022-07-26T22:33:47.722Z,16.70
2022-07-26T22:38:40.117Z,16.69
2022-07-26T22:43:29.786Z,16.66
2022-07-26T22:48:19.481Z,16.65
2022-07-26T22:53:09.317Z,16.60
2022-07-26T22:58:02.221Z,16.58
2022-07-26T23:02:52.120Z,16.55
2022-07-26T23:07:42.522Z,16.28
2022-07-26T23:12:35.720Z,16.24
2022-07-26T23:17:28.151Z,16.17
2022-07-26T23:22:17.896Z,16.16
2022-07-26T23:27:07.830Z,16.13
2022-07-26T23:31:57.351Z,16.11
2022-07-26T23:36:49.433Z,16.08
2022-07-26T23:41:39.010Z,16.07
2022-07-26T23:46:28.997Z,16.04
2022-07-26T23:51:19.574Z,16.01
2022-07-26T23:56:11.675Z,15.96
